Time;durP1;ratioP1;P1;durP2;ratioP2;P2;SDS_P1;SDS_P2;PMS_P1;PMS_P2;Temp;Humidity;BMP_temperature;BMP_pressure;BME280_temperature;BME280_humidity;BME280_pressure;Samples;Min_cycle;Max_cycle;Signal;HPM_P1;HPM_P2
2022/05/31 00:04:51;;;;;;;20.67;5.53;;;;;;;17.46;72.54;100154.59;10458423;28;20404;-72
2022/05/31 00:09:52;;;;;;;23.42;5.30;;;;;;;17.33;72.42;100124.13;10479695;28;20569;-72
2022/05/31 00:14:53;;;;;;;11.52;5.30;;;;;;;17.44;73.08;100151.31;10498933;28;20181;-72
2022/05/31 00:19:53;;;;;;;21.30;6.00;;;;;;;16.77;73.65;100048.94;10498738;28;20064;-72
2022/05/31 00:24:54;;;;;;;10.85;5.07;;;;;;;16.39;74.05;100010.34;10498784;28;20048;-72
2022/05/31 00:29:55;;;;;;;21.70;5.70;;;;;;;17.24;74.27;100143.41;10500511;28;20077;-72
2022/05/31 00:34:59;;;;;;;13.57;4.85;;;;;;;17.08;74.51;100123.25;10498721;28;20456;-72
2022/05/31 00:40:00;;;;;;;10.55;5.00;;;;;;;17.10;74.24;100150.69;10498925;28;20037;-72
2022/05/31 00:45:01;;;;;;;11.40;4.55;;;;;;;16.84;74.70;100140.91;10479618;28;20044;-72
2022/05/31 00:50:10;;;;;;;10.30;4.80;;;;;;;15.32;77.00;99901.94;10497955;28;20458;-72
2022/05/31 00:55:29;;;;;;;46.97;6.85;;;;;;;16.17;76.89;100044.66;10498066;28;20044;-73
2022/05/31 01:00:29;;;;;;;16.40;5.65;;;;;;;16.56;75.41;100127.81;10497442;28;20047;-72
2022/05/31 01:05:31;;;;;;;10.10;4.97;;;;;;;16.39;76.25;100139.03;10497242;28;20044;-72
2022/05/31 01:10:31;;;;;;;19.05;5.32;;;;;;;16.22;77.14;100179.91;10497520;28;20107;-73
2022/05/31 01:15:32;;;;;;;11.20;4.57;;;;;;;15.94;78.64;100195.19;10479148;28;20036;-73
2022/05/31 01:20:33;;;;;;;8.73;5.40;;;;;;;15.81;79.33;100197.84;10496934;28;20076;-72
2022/05/31 01:25:55;;;;;;;12.30;5.25;;;;;;;15.87;83.41;100210.41;10497478;28;20507;-72
2022/05/31 01:31:10;;;;;;;11.88;4.65;;;;;;;15.93;80.04;100222.16;10497346;28;20099;-72
2022/05/31 01:36:19;;;;;;;14.57;4.85;;;;;;;15.36;80.64;100111.91;10497195;28;20491;-72
2022/05/31 01:41:27;;;;;;;37.00;7.20;;;;;;;16.06;80.31;100215.97;10496102;28;20496;-73
2022/05/31 01:46:32;;;;;;;35.58;6.40;;;;;;;16.07;79.08;100226.50;10495961;28;20048;-72
2022/05/31 01:51:36;;;;;;;31.00;7.05;;;;;;;15.99;79.36;100205.25;10496437;28;20446;-72
2022/05/31 01:56:38;;;;;;;30.33;6.60;;;;;;;16.10;78.23;100223.41;10495583;28;20045;-72
2022/05/31 02:01:40;;;;;;;64.50;9.57;;;;;;;16.27;78.24;100231.81;10495228;28;20312;-72
2022/05/31 02:06:41;;;;;;;15.48;6.28;;;;;;;16.47;77.83;100230.97;10496460;28;20496;-72
2022/05/31 02:11:42;;;;;;;35.17;7.65;;;;;;;16.81;76.91;100228.03;10494869;28;20040;-72
2022/05/31 02:16:43;;;;;;;33.10;7.00;;;;;;;17.34;75.80;100240.41;10495338;28;20043;-72
2022/05/31 02:21:44;;;;;;;27.65;6.10;;;;;;;17.48;74.01;100200.88;10495044;28;20044;-72
2022/05/31 02:26:45;;;;;;;35.33;7.18;;;;;;;18.18;72.00;100241.06;10496283;28;20492;-72
2022/05/31 02:31:47;;;;;;;13.13;4.30;;;;;;;18.63;69.08;100230.06;10494344;28;20055;-73
2022/05/31 02:36:49;;;;;;;13.75;4.32;;;;;;;19.01;67.20;100220.97;10495023;28;20040;-72
2022/05/31 02:41:51;;;;;;;24.35;4.53;;;;;;;19.79;65.16;100226.31;10494903;28;20068;-72
2022/05/31 02:46:52;;;;;;;11.93;4.00;;;;;;;20.31;62.10;100225.66;10494562;28;20048;-72
2022/05/31 02:51:53;;;;;;;11.75;3.60;;;;;;;21.33;59.54;100240.50;10500249;28;20066;-73
2022/05/31 02:56:54;;;;;;;8.43;3.78;;;;;;;22.44;57.12;100248.09;10484738;28;20504;-73
2022/05/31 03:01:55;;;;;;;9.95;4.18;;;;;;;23.46;54.29;100243.97;10499419;28;20043;-73
2022/05/31 03:07:01;;;;;;;9.43;3.78;;;;;;;24.31;51.85;100217.81;10496025;28;20484;-75
2022/05/31 03:12:02;;;;;;;11.02;3.72;;;;;;;25.11;50.28;100244.06;10491990;28;20040;-75
2022/05/31 03:17:26;;;;;;;12.07;4.38;;;;;;;26.28;47.61;100235.22;10485151;28;20048;-75
2022/05/31 03:22:31;;;;;;;12.48;5.32;;;;;;;26.61;46.88;100231.91;10495843;28;20043;-75
2022/05/31 03:27:32;;;;;;;13.45;5.63;;;;;;;26.18;47.15;100151.66;10499277;28;20032;-75
2022/05/31 03:32:35;;;;;;;9.68;5.72;;;;;;;26.41;45.81;100159.22;10500649;28;20123;-74
2022/05/31 03:37:36;;;;;;;11.00;4.90;;;;;;;27.69;45.82;100250.47;10500482;28;20049;-74
2022/05/31 03:42:37;;;;;;;10.00;4.75;;;;;;;28.06;43.73;100200.78;10500879;28;20408;-75
2022/05/31 03:47:38;;;;;;;9.65;4.38;;;;;;;28.75;43.00;100250.63;10500910;28;20094;-74
2022/05/31 03:52:39;;;;;;;6.38;4.07;;;;;;;28.85;41.97;100228.59;10500480;28;20122;-74
2022/05/31 03:57:39;;;;;;;8.23;3.90;;;;;;;29.48;40.39;100249.38;10500706;28;20131;-71
2022/05/31 04:02:40;;;;;;;8.05;3.88;;;;;;;29.20;39.85;100149.16;10499534;28;20139;-70
2022/05/31 04:07:41;;;;;;;8.65;3.95;;;;;;;29.23;39.56;100151.28;10489161;28;20041;-71
2022/05/31 04:12:42;;;;;;;5.65;3.30;;;;;;;30.27;38.54;100251.44;10457497;28;20041;-72
2022/05/31 04:17:43;;;;;;;8.82;4.05;;;;;;;29.70;39.05;100143.97;10463132;28;20082;-70
2022/05/31 04:22:43;;;;;;;12.38;3.72;;;;;;;29.91;37.89;100156.16;10486164;28;20044;-70
2022/05/31 04:27:44;;;;;;;7.75;3.70;;;;;;;29.97;37.37;100144.00;10490302;28;20044;-72
2022/05/31 04:32:45;;;;;;;8.48;3.30;;;;;;;30.20;38.02;100284.69;10472039;28;20071;-71
2022/05/31 04:37:46;;;;;;;13.07;3.40;;;;;;;29.56;38.48;100254.19;10481337;28;20044;-72
2022/05/31 04:42:47;;;;;;;6.00;2.83;;;;;;;29.88;38.12;100271.78;10471187;28;20047;-70
2022/05/31 04:47:47;;;;;;;7.72;2.90;;;;;;;29.30;37.06;100148.97;10456433;28;20049;-73
2022/05/31 04:52:48;;;;;;;6.93;2.92;;;;;;;29.45;37.04;100162.41;10456515;28;20083;-72
2022/05/31 04:57:49;;;;;;;14.57;3.38;;;;;;;29.93;36.92;100266.22;10456340;28;20443;-71
2022/05/31 05:02:50;;;;;;;7.93;3.03;;;;;;;30.07;37.06;100260.00;10455472;28;20049;-71
2022/05/31 05:07:51;;;;;;;6.55;2.50;;;;;;;28.94;37.58;100160.41;10455558;28;20059;-71
2022/05/31 05:12:51;;;;;;;7.82;2.80;;;;;;;28.58;38.22;100217.47;10455840;28;20064;-69
2022/05/31 05:17:52;;;;;;;13.45;3.28;;;;;;;28.60;38.85;100267.19;10437139;28;20080;-69
2022/05/31 05:22:53;;;;;;;8.00;2.60;;;;;;;28.49;38.67;100263.75;10448361;28;20406;-71
2022/05/31 05:27:53;;;;;;;9.95;3.20;;;;;;;28.21;39.69;100219.75;10454562;28;20036;-72
2022/05/31 05:32:54;;;;;;;7.30;2.78;;;;;;;28.69;40.09;100229.91;10455542;28;20037;-71
2022/05/31 05:37:55;;;;;;;17.80;3.35;;;;;;;28.65;38.75;100205.06;10436883;28;20408;-70
2022/05/31 05:42:56;;;;;;;9.10;3.03;;;;;;;29.03;39.19;100227.03;10454841;28;20041;-70
2022/05/31 05:47:56;;;;;;;12.35;2.80;;;;;;;28.89;39.24;100090.19;10454161;28;20045;-70
2022/05/31 05:53:09;;;;;;;5.03;1.83;;;;;;;30.15;34.10;100205.31;10455029;28;20107;-68
2022/05/31 05:58:09;;;;;;;28.02;3.35;;;;;;;30.45;34.79;100192.16;10454500;28;20040;-69
2022/05/31 06:03:27;;;;;;;6.60;1.80;;;;;;;30.97;30.41;100213.91;10436435;28;20053;-68
2022/05/31 06:08:36;;;;;;;11.40;1.70;;;;;;;31.26;28.43;100191.56;10454775;28;20451;-67
2022/05/31 06:13:42;;;;;;;8.63;1.70;;;;;;;31.76;27.27;100211.50;10453110;28;20087;-67
2022/05/31 06:18:58;;;;;;;5.32;1.52;;;;;;;32.17;25.61;100215.97;10453479;28;20083;-67
2022/05/31 06:24:00;;;;;;;3.40;1.50;;;;;;;32.33;26.21;100210.06;10456074;28;20063;-68
2022/05/31 06:29:03;;;;;;;14.02;1.95;;;;;;;32.55;25.52;100192.69;10462173;28;20064;-68
2022/05/31 06:34:04;;;;;;;7.65;1.70;;;;;;;32.57;25.10;100202.25;10461470;28;20045;-68
2022/05/31 06:39:05;;;;;;;5.00;1.70;;;;;;;32.63;24.62;100187.22;10461086;28;20048;-68
2022/05/31 06:44:06;;;;;;;3.53;1.45;;;;;;;32.73;24.83;100172.38;10460915;28;20052;-69
2022/05/31 06:49:06;;;;;;;7.93;1.60;;;;;;;33.14;24.16;100212.44;10460906;28;20048;-68
2022/05/31 06:59:27;;;;;;;19.27;2.78;;;;;;;33.01;23.95;100161.91;10461334;28;20041;-70
2022/05/31 07:04:28;;;;;;;17.75;2.00;;;;;;;32.81;23.81;100096.50;10461230;28;20471;-69
2022/05/31 07:09:29;;;;;;;25.75;3.35;;;;;;;33.37;24.33;100180.84;10460242;28;20075;-69
2022/05/31 07:14:29;;;;;;;18.55;2.25;;;;;;;33.58;23.63;100196.75;10472054;28;20041;-70
2022/05/31 07:19:31;;;;;;;35.78;3.42;;;;;;;33.71;23.07;100200.44;10460340;28;20052;-68
2022/05/31 07:24:32;;;;;;;11.20;1.77;;;;;;;33.14;22.76;100103.16;10460509;28;20073;-69
2022/05/31 07:29:33;;;;;;;10.98;1.75;;;;;;;33.66;22.42;100189.63;10471522;28;20037;-68
2022/05/31 07:34:34;;;;;;;27.45;3.05;;;;;;;33.32;22.64;100122.41;10479878;28;20048;-70
2022/05/31 07:39:36;;;;;;;9.43;1.73;;;;;;;33.42;22.34;100144.09;10460190;28;20488;-69
2022/05/31 07:44:36;;;;;;;3.73;1.60;;;;;;;33.74;22.01;100189.56;10461485;28;20041;-70
2022/05/31 07:49:37;;;;;;;5.28;1.73;;;;;;;33.98;21.79;100194.53;10495153;28;20045;-69
2022/05/31 07:54:39;;;;;;;5.55;1.40;;;;;;;34.03;21.31;100194.41;10500207;28;20070;-70
2022/05/31 07:59:39;;;;;;;39.47;3.25;;;;;;;34.29;21.36;100185.25;10499887;28;20047;-71
2022/05/31 08:04:40;;;;;;;13.05;2.45;;;;;;;34.30;20.76;100192.34;10500043;28;20488;-70
2022/05/31 08:09:41;;;;;;;20.98;2.88;;;;;;;34.17;20.92;100128.03;10500213;28;20036;-71
2022/05/31 08:14:42;;;;;;;12.80;2.58;;;;;;;34.63;20.87;100184.25;10498915;28;20053;-71
2022/05/31 08:19:42;;;;;;;30.73;2.92;;;;;;;33.88;21.12;100054.38;10499341;28;20037;-71
2022/05/31 08:24:43;;;;;;;14.30;2.20;;;;;;;34.49;21.02;100167.94;10499140;28;20048;-71
2022/05/31 08:29:44;;;;;;;8.77;1.88;;;;;;;33.53;21.31;100021.47;10499261;28;20043;-70
2022/05/31 08:34:44;;;;;;;18.23;2.95;;;;;;;34.19;21.76;100130.44;10498142;28;20423;-71
2022/05/31 08:39:45;;;;;;;17.50;2.80;;;;;;;34.62;21.97;100157.03;10498029;28;20040;-69
2022/05/31 08:45:08;;;;;;;8.93;2.30;;;;;;;34.82;21.73;100158.16;10498442;28;20402;-72
2022/05/31 09:01:33;;;;;;;13.02;2.40;;;;;;;34.76;20.76;100149.28;10497303;28;20052;-71
2022/05/31 09:06:39;;;;;;;8.18;2.17;;;;;;;34.81;20.97;100146.34;10479891;28;20131;-70
2022/05/31 09:12:24;;;;;;;9.13;2.15;;;;;;;35.02;21.13;100151.06;10497819;28;20036;-69
2022/05/31 09:17:27;;;;;;;11.02;1.80;;;;;;;35.21;21.57;100134.81;10478392;28;20044;-69
2022/05/31 09:22:28;;;;;;;5.80;2.13;;;;;;;35.23;21.33;100135.28;10497235;28;20083;-70
2022/05/31 09:27:38;;;;;;;9.65;2.55;;;;;;;35.22;21.12;100142.78;10495465;28;20453;-71
2022/05/31 09:32:57;;;;;;;26.30;3.13;;;;;;;35.39;21.81;100141.81;10496458;28;20040;-70
2022/05/31 09:38:10;;;;;;;7.78;2.10;;;;;;;35.31;21.37;100134.41;10495960;28;20397;-71
2022/05/31 09:43:17;;;;;;;17.25;2.92;;;;;;;35.53;22.20;100135.16;10496167;28;20492;-71
2022/05/31 09:48:17;;;;;;;9.63;2.50;;;;;;;35.34;21.94;100119.94;10495709;28;20070;-71
2022/05/31 09:58:39;;;;;;;7.40;2.00;;;;;;;35.18;21.22;100127.22;10499042;28;20534;-72
2022/05/31 10:03:48;;;;;;;12.65;3.15;;;;;;;34.85;20.57;100025.88;10537519;28;20454;-69
2022/05/31 10:08:54;;;;;;;8.88;2.30;;;;;;;35.27;20.88;100103.13;10537816;28;20051;-71
2022/05/31 10:14:04;;;;;;;27.10;2.65;;;;;;;35.33;22.12;100112.81;10537479;28;20032;-69
2022/05/31 10:19:24;;;;;;;8.43;2.30;;;;;;;35.32;21.07;100119.44;10536504;28;20051;-69
2022/05/31 10:24:28;;;;;;;8.95;2.78;;;;;;;34.33;20.75;99998.69;10533910;28;20456;-71
2022/05/31 10:29:33;;;;;;;9.73;2.40;;;;;;;35.02;20.89;100104.13;10493592;28;20044;-70
2022/05/31 10:34:39;;;;;;;11.32;2.10;;;;;;;34.07;20.57;99928.03;10452944;28;20045;-73
2022/05/31 10:39:39;;;;;;;10.27;2.40;;;;;;;35.21;20.71;100093.41;10481250;28;20115;-73
2022/05/31 10:44:51;;;;;;;13.77;2.60;;;;;;;35.24;19.79;100087.22;10481901;28;20446;-71
2022/05/31 10:49:52;;;;;;;16.03;2.80;;;;;;;35.09;20.29;100091.44;10489247;28;20040;-73
2022/05/31 10:55:23;;;;;;;11.77;2.53;;;;;;;35.06;19.84;100100.41;10490575;28;20504;-71
2022/05/31 11:00:42;;;;;;;14.45;2.28;;;;;;;35.15;20.58;100092.00;10481448;28;20052;-73
2022/05/31 11:06:07;;;;;;;7.00;1.95;;;;;;;35.22;19.25;100089.50;10489808;28;20452;-72
2022/05/31 11:11:29;;;;;;;15.35;2.13;;;;;;;35.01;19.50;100063.88;10471983;28;20126;-73
2022/05/31 11:16:44;;;;;;;10.48;2.47;;;;;;;35.33;19.65;100092.63;10476330;28;20530;-73
2022/05/31 11:22:01;;;;;;;12.13;2.83;;;;;;;35.46;19.24;100091.53;10491702;28;20122;-73
2022/05/31 11:27:33;;;;;;;10.75;2.45;;;;;;;35.32;19.79;100055.13;10496509;28;20044;-73
2022/05/31 11:32:47;;;;;;;10.65;2.80;;;;;;;34.74;19.82;99994.31;10462140;28;20044;-74
2022/05/31 11:37:58;;;;;;;17.27;3.45;;;;;;;34.75;19.57;100013.28;10487016;28;20139;-73
2022/05/31 11:43:04;;;;;;;22.23;4.50;;;;;;;35.40;19.72;100079.09;10500359;28;20040;-74
2022/05/31 11:48:05;;;;;;;11.55;2.30;;;;;;;35.30;19.77;100068.47;10483544;28;20045;-72
2022/05/31 11:53:43;;;;;;;4.05;1.85;;;;;;;35.30;19.12;100072.06;10482791;28;20476;-74
2022/05/31 11:59:01;;;;;;;11.15;2.53;;;;;;;34.73;19.92;99963.16;10479387;28;20055;-72
2022/05/31 12:04:09;;;;;;;15.15;2.35;;;;;;;34.69;19.89;99975.22;10484580;28;20541;-77
2022/05/31 12:09:24;;;;;;;10.50;2.97;;;;;;;35.30;19.86;100069.31;10497239;28;20060;-73
2022/05/31 12:14:26;;;;;;;9.98;2.40;;;;;;;35.30;19.45;100068.47;10499891;28;20036;-72
2022/05/31 12:20:13;;;;;;;8.65;2.20;;;;;;;35.27;18.75;100072.75;10499001;28;20086;-72
2022/05/31 12:25:23;;;;;;;10.55;2.20;;;;;;;34.50;19.65;99945.34;10498931;28;20055;-73
2022/05/31 12:30:31;;;;;;;6.53;2.03;;;;;;;34.53;19.72;99936.41;10498435;28;20040;-71
2022/05/31 12:35:32;;;;;;;15.70;2.38;;;;;;;34.78;19.77;99948.34;10496664;28;20500;-73
2022/05/31 12:40:32;;;;;;;8.82;2.25;;;;;;;34.49;19.21;99916.97;10494553;28;20127;-69
2022/05/31 12:45:33;;;;;;;9.40;2.00;;;;;;;35.18;19.35;100039.69;10470458;28;20451;-74
2022/05/31 12:50:55;;;;;;;12.32;2.42;;;;;;;35.26;19.50;100035.22;10471113;28;20044;-72
2022/05/31 12:55:59;;;;;;;8.90;2.28;;;;;;;35.20;19.48;100033.81;10432373;28;20052;-73
2022/05/31 13:01:25;;;;;;;7.55;2.22;;;;;;;35.18;18.61;100028.66;10454484;28;20048;-73
2022/05/31 13:06:57;;;;;;;7.53;2.20;;;;;;;35.05;18.29;100034.47;10437490;28;20029;-72
2022/05/31 13:23:14;;;;;;;9.07;1.90;;;;;;;34.20;19.18;99917.88;10448497;28;20385;-72
2022/05/31 13:28:56;;;;;;;4.75;1.98;;;;;;;34.86;18.66;100032.19;10428245;28;20496;-72
2022/05/31 13:34:06;;;;;;;11.55;2.22;;;;;;;34.51;19.15;100032.44;10444899;28;20639;-73
2022/05/31 13:39:13;;;;;;;19.10;2.33;;;;;;;34.24;19.17;100029.06;10419866;28;20087;-70
2022/05/31 13:44:18;;;;;;;46.63;4.38;;;;;;;34.20;20.48;100019.06;10445648;28;20037;-71
2022/05/31 13:49:24;;;;;;;4.13;1.48;;;;;;;34.08;19.25;100014.28;10395807;28;20536;-73
2022/05/31 13:54:28;;;;;;;11.30;2.00;;;;;;;34.00;19.54;100028.88;10456309;28;20060;-73
2022/05/31 13:59:32;;;;;;;11.48;2.10;;;;;;;33.88;19.17;100032.34;10485463;28;20075;-73
2022/05/31 14:04:36;;;;;;;8.27;1.42;;;;;;;33.04;19.66;99897.09;10461770;28;20045;-74
2022/05/31 14:09:39;;;;;;;6.13;1.63;;;;;;;32.52;19.89;99814.75;10475877;28;20044;-74
2022/05/31 14:14:43;;;;;;;35.28;3.88;;;;;;;33.16;20.59;99907.41;10487167;28;20051;-72
2022/05/31 14:19:49;;;;;;;31.65;3.63;;;;;;;33.81;19.76;100016.34;10483186;28;20052;-74
2022/05/31 14:24:55;;;;;;;9.63;2.38;;;;;;;33.70;20.46;100001.31;10484103;28;20044;-74
2022/05/31 14:30:08;;;;;;;13.70;2.05;;;;;;;33.45;20.71;99967.22;10494904;28;20047;-74
2022/05/31 14:35:44;;;;;;;51.47;5.15;;;;;;;33.62;20.49;100015.91;10461125;28;20036;-73
2022/05/31 14:40:59;;;;;;;26.25;2.65;;;;;;;33.42;20.46;100012.75;10457279;28;20057;-71
2022/05/31 14:46:01;;;;;;;19.58;2.72;;;;;;;33.28;20.62;100014.09;10472524;28;20032;-72
2022/05/31 14:51:22;;;;;;;15.90;2.15;;;;;;;33.29;21.03;100029.44;10467678;28;20069;-72
2022/05/31 14:56:39;;;;;;;26.00;3.53;;;;;;;33.14;21.17;100036.28;10450088;28;20564;-73
2022/05/31 15:01:40;;;;;;;18.15;2.38;;;;;;;32.88;20.92;100019.81;10419610;28;20041;-71
2022/05/31 15:06:42;;;;;;;43.75;3.53;;;;;;;32.14;21.32;99932.78;10428587;28;20041;-75
2022/05/31 15:22:35;;;;;;;23.45;2.75;;;;;;;32.46;22.16;100034.03;10459619;28;20520;-74
2022/05/31 15:27:36;;;;;;;27.60;2.58;;;;;;;31.20;22.81;99891.78;10456641;28;20032;-74
2022/05/31 15:32:38;;;;;;;20.45;2.70;;;;;;;31.84;23.32;100043.22;10447104;28;20053;-73
2022/05/31 15:37:39;;;;;;;35.40;3.28;;;;;;;30.93;24.49;99951.22;10440494;28;20053;-75
2022/05/31 15:42:41;;;;;;;56.47;5.00;;;;;;;31.03;25.18;100031.63;10458293;28;20049;-76
2022/05/31 15:47:41;;;;;;;79.45;10.20;;;;;;;30.17;25.72;99931.06;10455131;28;20075;-76
2022/05/31 15:52:44;;;;;;;52.25;7.28;;;;;;;30.62;26.16;100062.72;10456107;28;20080;-73
2022/05/31 15:57:47;;;;;;;15.05;2.60;;;;;;;30.07;26.80;100035.38;10470871;28;20420;-71
2022/05/31 16:02:48;;;;;;;9.20;2.35;;;;;;;29.86;27.06;100044.00;10486590;28;20044;-71
2022/05/31 16:07:51;;;;;;;27.60;2.55;;;;;;;29.66;27.53;100072.56;10500206;28;20064;-76
2022/05/31 16:12:52;;;;;;;24.55;2.85;;;;;;;29.38;27.58;100066.22;10500686;28;20044;-76
2022/05/31 16:17:53;;;;;;;33.85;3.67;;;;;;;29.14;27.93;100071.81;10499286;28;20037;-73
2022/05/31 16:22:56;;;;;;;45.90;3.80;;;;;;;28.89;27.72;100079.25;10487855;28;20106;-73
2022/05/31 16:27:58;;;;;;;109.70;7.03;;;;;;;28.61;28.11;100077.50;10477363;28;20047;-74
2022/05/31 16:32:59;;;;;;;30.95;2.97;;;;;;;28.45;28.17;100079.63;10481236;28;20041;-75
2022/05/31 16:43:19;;;;;;;59.55;4.90;;;;;;;27.96;29.42;100091.66;10486331;28;20523;-75
2022/05/31 16:48:19;;;;;;;26.15;3.40;;;;;;;27.66;29.23;100077.19;10497684;28;20043;-75
2022/05/31 16:53:21;;;;;;;32.78;3.92;;;;;;;27.56;29.75;100080.03;10468193;28;20060;-74
2022/05/31 16:58:21;;;;;;;20.58;2.38;;;;;;;27.00;29.48;100015.84;10456272;28;20051;-75
2022/05/31 17:03:22;;;;;;;16.08;3.08;;;;;;;27.17;29.57;100080.91;10456437;28;20041;-73
2022/05/31 17:19:04;;;;;;;20.85;2.72;;;;;;;26.73;30.58;100125.31;10437781;28;20029;-74
2022/05/31 17:24:06;;;;;;;20.75;2.90;;;;;;;26.48;31.22;100122.69;10443240;28;20103;-73
2022/05/31 17:29:07;;;;;;;18.33;2.80;;;;;;;26.58;31.09;100149.91;10431750;28;20555;-74
2022/05/31 17:34:08;;;;;;;16.77;2.25;;;;;;;25.84;30.83;100031.72;10435689;28;20052;-74
2022/05/31 17:39:10;;;;;;;15.32;2.53;;;;;;;26.55;31.00;100139.56;10453245;28;20041;-74
2022/05/31 17:44:13;;;;;;;8.60;2.22;;;;;;;25.82;30.58;100025.75;10478156;28;20061;-73
2022/05/31 17:49:14;;;;;;;12.23;2.00;;;;;;;26.50;30.80;100143.13;10496320;28;20094;-73
2022/05/31 17:54:27;;;;;;;13.18;2.13;;;;;;;26.23;30.64;100113.50;10530845;28;20079;-73
2022/05/31 17:59:28;;;;;;;10.57;2.55;;;;;;;25.54;30.93;100029.84;10491488;28;20040;-72
2022/05/31 18:04:29;;;;;;;7.03;2.08;;;;;;;25.94;31.34;100118.78;10494257;28;20044;-73
2022/05/31 18:09:35;;;;;;;19.77;2.65;;;;;;;25.88;31.53;100131.59;10493434;28;20090;-72
2022/05/31 18:14:36;;;;;;;11.27;2.05;;;;;;;25.83;31.53;100149.81;10495307;28;20043;-73
2022/05/31 18:19:37;;;;;;;22.17;2.70;;;;;;;25.68;31.93;100137.00;10497594;28;20357;-73
2022/05/31 18:24:42;;;;;;;18.63;2.75;;;;;;;25.44;32.58;100132.13;10503681;28;20439;-74
2022/05/31 18:29:51;;;;;;;12.68;2.10;;;;;;;25.43;32.88;100137.84;10504971;28;20036;-73
2022/05/31 18:34:57;;;;;;;14.77;2.95;;;;;;;25.25;33.01;100128.31;10502220;28;20047;-73
2022/05/31 18:45:07;;;;;;;10.23;1.90;;;;;;;24.22;34.06;99983.25;10497464;28;20051;-74
2022/05/31 18:50:09;;;;;;;13.65;2.20;;;;;;;24.13;34.19;99991.09;10497058;28;20055;-73
2022/05/31 18:55:10;;;;;;;11.35;2.03;;;;;;;24.60;34.56;100093.38;10498656;28;20052;-74
2022/05/31 19:00:11;;;;;;;9.63;1.92;;;;;;;24.59;34.83;100102.59;10501077;28;20037;-73
2022/05/31 19:05:16;;;;;;;9.77;2.15;;;;;;;24.50;35.33;100100.66;10500172;28;20047;-74
2022/05/31 19:10:17;;;;;;;7.53;2.42;;;;;;;23.49;35.33;99939.81;10498186;28;20515;-73
2022/05/31 19:15:20;;;;;;;13.60;1.90;;;;;;;23.90;35.63;100021.38;10499968;28;20041;-73
2022/05/31 19:20:21;;;;;;;8.00;1.73;;;;;;;23.55;35.59;99965.88;10479688;28;20484;-74
2022/05/31 19:25:25;;;;;;;14.98;2.35;;;;;;;24.19;35.94;100099.69;10499305;28;20635;-71
2022/05/31 19:30:33;;;;;;;9.63;1.60;;;;;;;23.26;36.15;99961.91;10493004;28;20044;-72
2022/05/31 19:35:37;;;;;;;13.27;2.13;;;;;;;23.99;36.29;100098.50;10498878;28;20055;-72
2022/05/31 19:40:40;;;;;;;9.43;2.05;;;;;;;23.71;36.49;100074.44;10501225;28;20040;-74
2022/05/31 19:45:40;;;;;;;7.00;1.90;;;;;;;23.64;36.35;100086.31;10500869;28;20037;-73
2022/05/31 19:50:41;;;;;;;6.88;1.77;;;;;;;23.55;36.36;100079.75;10501078;28;20369;-73
2022/05/31 19:55:42;;;;;;;8.05;1.60;;;;;;;23.53;36.01;100076.47;10500579;28;20066;-72
2022/05/31 20:00:48;;;;;;;17.00;2.35;;;;;;;22.77;36.25;99982.63;10498868;28;20495;-72
2022/05/31 20:05:48;;;;;;;10.45;1.90;;;;;;;23.44;36.17;100105.13;10500410;28;20044;-72
2022/05/31 20:10:50;;;;;;;8.25;1.90;;;;;;;22.57;35.84;99974.31;10499511;28;20119;-73
2022/05/31 20:15:50;;;;;;;9.05;1.90;;;;;;;23.06;35.70;100060.91;10491350;28;20044;-72
2022/05/31 20:21:00;;;;;;;10.48;1.88;;;;;;;23.19;35.66;100109.28;10477731;28;20044;-72
2022/05/31 20:26:01;;;;;;;7.07;1.63;;;;;;;23.15;35.93;100110.03;10459754;28;20033;-73
2022/05/31 20:31:02;;;;;;;10.13;1.80;;;;;;;22.89;35.95;100090.00;10457928;28;20049;-73
2022/05/31 20:36:03;;;;;;;10.82;2.40;;;;;;;22.63;36.39;100095.13;10458357;28;20408;-73
2022/05/31 20:41:09;;;;;;;10.07;1.70;;;;;;;21.84;37.05;100012.44;10457288;28;20128;-74
2022/05/31 20:46:10;;;;;;;11.45;2.08;;;;;;;22.32;37.51;100110.19;10462689;28;20044;-74
2022/05/31 20:51:11;;;;;;;9.82;1.70;;;;;;;22.07;38.32;100118.72;10480627;28;20052;-72
2022/05/31 20:56:12;;;;;;;7.95;2.00;;;;;;;21.15;38.76;100014.63;10462183;28;20508;-74
2022/05/31 21:01:13;;;;;;;7.03;1.70;;;;;;;21.61;39.21;100118.06;10455891;28;20119;-74
2022/05/31 21:06:22;;;;;;;9.00;1.73;;;;;;;21.58;39.87;100121.25;10456350;28;20048;-73
2022/05/31 21:11:23;;;;;;;10.90;2.08;;;;;;;20.56;39.46;99976.38;10456114;28;20049;-75
2022/05/31 21:16:24;;;;;;;11.32;2.33;;;;;;;21.37;39.54;100139.03;10455690;28;20658;-74
2022/05/31 21:21:29;;;;;;;18.42;1.95;;;;;;;21.27;40.01;100120.72;10467163;28;20049;-74
2022/05/31 21:26:31;;;;;;;9.32;1.60;;;;;;;21.13;39.88;100114.00;10454734;28;20029;-74
2022/05/31 21:31:33;;;;;;;6.53;1.60;;;;;;;21.11;39.63;100110.69;10493377;28;20072;-74
2022/05/31 21:36:36;;;;;;;11.75;2.10;;;;;;;20.96;40.05;100109.34;10493077;28;20076;-74
2022/05/31 21:41:37;;;;;;;13.13;2.03;;;;;;;20.85;40.46;100126.44;10495562;28;20047;-75
2022/05/31 21:46:38;;;;;;;6.05;1.40;;;;;;;20.63;41.12;100125.47;10477938;28;20045;-76
2022/05/31 21:51:39;;;;;;;15.20;1.75;;;;;;;19.61;41.52;99984.66;10496451;28;20444;-74
2022/05/31 21:56:41;;;;;;;9.77;2.17;;;;;;;20.10;42.29;100094.09;10475533;28;20520;-74
2022/05/31 22:01:42;;;;;;;17.35;2.38;;;;;;;20.20;43.22;100132.09;10453458;28;20539;-74
2022/05/31 22:06:43;;;;;;;16.35;2.30;;;;;;;19.95;44.37;100135.88;10481320;28;20040;-74
2022/05/31 22:11:50;;;;;;;15.98;2.13;;;;;;;19.79;45.17;100125.78;10477822;28;20109;-74
2022/05/31 22:16:51;;;;;;;11.18;2.10;;;;;;;19.80;46.00;100141.72;10495507;28;20036;-74
2022/05/31 22:21:52;;;;;;;9.63;1.90;;;;;;;18.81;46.96;100001.34;10495105;28;20040;-74
2022/05/31 22:26:53;;;;;;;8.35;2.22;;;;;;;17.96;47.44;99867.09;10494938;28;20043;-74
2022/05/31 22:31:53;;;;;;;10.93;2.28;;;;;;;19.31;48.33;100134.81;10496446;28;20109;-75
2022/05/31 22:36:54;;;;;;;10.57;1.80;;;;;;;19.05;49.63;100126.06;10495901;28;20051;-74
2022/05/31 22:41:56;;;;;;;10.00;2.13;;;;;;;19.04;50.41;100135.19;10495052;28;20411;-74
2022/05/31 22:46:56;;;;;;;10.32;1.92;;;;;;;18.15;50.52;100002.25;10495020;28;20033;-74
2022/05/31 22:51:57;;;;;;;11.00;1.90;;;;;;;18.53;50.54;100069.19;10494583;28;20048;-74
2022/05/31 22:56:59;;;;;;;10.00;1.90;;;;;;;18.60;50.65;100094.13;10495279;28;20048;-75
2022/05/31 23:02:01;;;;;;;9.52;1.80;;;;;;;18.24;51.16;100049.28;10494793;28;20037;-74
2022/05/31 23:07:02;;;;;;;7.13;1.80;;;;;;;18.59;51.37;100105.97;10498684;28;20119;-74
2022/05/31 23:12:04;;;;;;;10.15;2.42;;;;;;;18.56;51.71;100117.16;10484515;28;20392;-74
2022/05/31 23:17:05;;;;;;;9.30;2.53;;;;;;;18.23;52.22;100104.94;10502502;28;20040;-74
2022/05/31 23:27:26;;;;;;;28.33;2.40;;;;;;;18.06;54.37;100133.44;10501390;28;20075;-74
2022/05/31 23:32:29;;;;;;;9.27;2.13;;;;;;;18.01;56.00;100142.19;10501602;28;20123;-74
2022/05/31 23:37:30;;;;;;;8.97;2.33;;;;;;;17.86;55.33;100116.69;10501937;28;20047;-74
2022/05/31 23:42:31;;;;;;;9.20;2.38;;;;;;;17.87;56.09;100126.41;10500827;28;20053;-74
2022/05/31 23:47:31;;;;;;;9.40;1.92;;;;;;;17.76;56.25;100136.78;10482895;28;20048;-74
2022/05/31 23:52:32;;;;;;;18.55;3.30;;;;;;;17.55;56.56;100131.81;10501019;28;20057;-73
2022/05/31 23:57:33;;;;;;;12.30;2.83;;;;;;;17.44;57.44;100132.50;10482199;28;20047;-73
